sensor_id;sensor_type;location;lat;lon;timestamp;P1;durP1;ratioP1;P2;durP2;ratioP2
21038;SDS011;10678;51.002;4.786;2024-03-25T00:00:11;11.60;;;4.57;;
21038;SDS011;10678;51.002;4.786;2024-03-25T00:02:38;14.20;;;4.60;;
21038;SDS011;10678;51.002;4.786;2024-03-25T00:05:05;19.07;;;4.73;;
21038;SDS011;10678;51.002;4.786;2024-03-25T00:07:34;16.27;;;4.97;;
21038;SDS011;10678;51.002;4.786;2024-03-25T00:10:00;9.03;;;4.13;;
21038;SDS011;10678;51.002;4.786;2024-03-25T00:12:26;14.63;;;5.53;;
21038;SDS011;10678;51.002;4.786;2024-03-25T00:14:51;16.87;;;4.63;;
21038;SDS011;10678;51.002;4.786;2024-03-25T00:17:17;14.50;;;5.63;;
21038;SDS011;10678;51.002;4.786;2024-03-25T00:19:44;14.23;;;5.20;;
21038;SDS011;10678;51.002;4.786;2024-03-25T00:22:15;21.27;;;5.73;;
21038;SDS011;10678;51.002;4.786;2024-03-25T00:24:41;18.30;;;6.00;;
21038;SDS011;10678;51.002;4.786;2024-03-25T00:27:07;18.27;;;5.70;;
21038;SDS011;10678;51.002;4.786;2024-03-25T00:29:33;12.83;;;6.27;;
21038;SDS011;10678;51.002;4.786;2024-03-25T00:31:58;19.40;;;5.23;;
21038;SDS011;10678;51.002;4.786;2024-03-25T00:34:24;16.43;;;5.77;;
21038;SDS011;10678;51.002;4.786;2024-03-25T00:36:49;20.43;;;6.80;;
21038;SDS011;10678;51.002;4.786;2024-03-25T00:39:15;17.40;;;5.67;;
21038;SDS011;10678;51.002;4.786;2024-03-25T00:41:42;16.60;;;5.60;;
21038;SDS011;10678;51.002;4.786;2024-03-25T00:44:07;17.23;;;5.57;;
21038;SDS011;10678;51.002;4.786;2024-03-25T00:46:33;17.67;;;5.27;;
21038;SDS011;10678;51.002;4.786;2024-03-25T00:48:58;12.23;;;5.40;;
21038;SDS011;10678;51.002;4.786;2024-03-25T00:51:24;15.03;;;5.40;;
21038;SDS011;10678;51.002;4.786;2024-03-25T00:53:50;16.27;;;5.63;;
21038;SDS011;10678;51.002;4.786;2024-03-25T00:56:15;12.33;;;5.30;;
21038;SDS011;10678;51.002;4.786;2024-03-25T00:58:41;10.40;;;4.80;;
21038;SDS011;10678;51.002;4.786;2024-03-25T01:01:07;13.73;;;5.33;;
21038;SDS011;10678;51.002;4.786;2024-03-25T01:03:32;13.43;;;5.60;;
21038;SDS011;10678;51.002;4.786;2024-03-25T01:05:59;9.17;;;4.73;;
21038;SDS011;10678;51.002;4.786;2024-03-25T01:08:24;13.93;;;5.37;;
21038;SDS011;10678;51.002;4.786;2024-03-25T01:10:50;8.57;;;4.30;;
21038;SDS011;10678;51.002;4.786;2024-03-25T01:13:15;12.33;;;5.00;;
21038;SDS011;10678;51.002;4.786;2024-03-25T01:15:41;12.30;;;4.70;;
21038;SDS011;10678;51.002;4.786;2024-03-25T01:18:07;12.93;;;4.63;;
21038;SDS011;10678;51.002;4.786;2024-03-25T01:20:33;12.77;;;5.13;;
21038;SDS011;10678;51.002;4.786;2024-03-25T01:22:59;12.03;;;4.80;;
21038;SDS011;10678;51.002;4.786;2024-03-25T01:25:24;13.90;;;4.47;;
21038;SDS011;10678;51.002;4.786;2024-03-25T01:27:50;10.13;;;4.30;;
21038;SDS011;10678;51.002;4.786;2024-03-25T01:30:16;10.43;;;4.20;;
21038;SDS011;10678;51.002;4.786;2024-03-25T01:32:44;12.20;;;4.43;;
21038;SDS011;10678;51.002;4.786;2024-03-25T01:35:11;11.07;;;4.50;;
21038;SDS011;10678;51.002;4.786;2024-03-25T01:37:37;10.50;;;4.10;;
21038;SDS011;10678;51.002;4.786;2024-03-25T01:40:03;12.30;;;4.60;;
21038;SDS011;10678;51.002;4.786;2024-03-25T01:42:29;10.73;;;4.43;;
21038;SDS011;10678;51.002;4.786;2024-03-25T01:44:55;9.00;;;3.90;;
21038;SDS011;10678;51.002;4.786;2024-03-25T01:47:21;7.67;;;4.30;;
21038;SDS011;10678;51.002;4.786;2024-03-25T01:49:47;11.40;;;4.77;;
21038;SDS011;10678;51.002;4.786;2024-03-25T01:52:14;12.07;;;4.57;;
21038;SDS011;10678;51.002;4.786;2024-03-25T01:54:41;11.90;;;4.33;;
21038;SDS011;10678;51.002;4.786;2024-03-25T01:57:07;10.77;;;4.83;;
21038;SDS011;10678;51.002;4.786;2024-03-25T01:59:34;12.33;;;4.47;;
21038;SDS011;10678;51.002;4.786;2024-03-25T02:02:00;13.57;;;4.17;;
21038;SDS011;10678;51.002;4.786;2024-03-25T02:04:26;9.93;;;3.77;;
21038;SDS011;10678;51.002;4.786;2024-03-25T02:06:52;7.77;;;3.90;;
21038;SDS011;10678;51.002;4.786;2024-03-25T02:09:20;13.30;;;4.03;;
21038;SDS011;10678;51.002;4.786;2024-03-25T02:11:48;11.37;;;3.80;;
21038;SDS011;10678;51.002;4.786;2024-03-25T02:14:14;11.63;;;4.40;;
21038;SDS011;10678;51.002;4.786;2024-03-25T02:16:41;9.13;;;3.73;;
21038;SDS011;10678;51.002;4.786;2024-03-25T02:19:07;8.67;;;3.97;;
21038;SDS011;10678;51.002;4.786;2024-03-25T02:21:34;7.23;;;3.20;;
21038;SDS011;10678;51.002;4.786;2024-03-25T02:24:00;15.63;;;4.00;;
21038;SDS011;10678;51.002;4.786;2024-03-25T02:26:30;10.43;;;3.90;;
21038;SDS011;10678;51.002;4.786;2024-03-25T02:28:56;16.00;;;4.20;;
21038;SDS011;10678;51.002;4.786;2024-03-25T02:31:22;7.60;;;3.53;;
21038;SDS011;10678;51.002;4.786;2024-03-25T02:33:47;8.00;;;4.10;;
21038;SDS011;10678;51.002;4.786;2024-03-25T02:36:13;10.70;;;4.03;;
21038;SDS011;10678;51.002;4.786;2024-03-25T02:38:38;6.40;;;3.60;;
21038;SDS011;10678;51.002;4.786;2024-03-25T02:41:04;11.10;;;3.97;;
21038;SDS011;10678;51.002;4.786;2024-03-25T02:43:30;7.73;;;3.80;;
21038;SDS011;10678;51.002;4.786;2024-03-25T02:45:56;8.27;;;3.90;;
21038;SDS011;10678;51.002;4.786;2024-03-25T02:48:22;9.93;;;4.90;;
21038;SDS011;10678;51.002;4.786;2024-03-25T02:50:48;8.23;;;4.47;;
21038;SDS011;10678;51.002;4.786;2024-03-25T02:53:13;9.17;;;3.93;;
21038;SDS011;10678;51.002;4.786;2024-03-25T02:55:39;12.00;;;4.47;;
21038;SDS011;10678;51.002;4.786;2024-03-25T02:58:04;11.20;;;3.87;;
21038;SDS011;10678;51.002;4.786;2024-03-25T03:00:30;13.50;;;4.63;;
21038;SDS011;10678;51.002;4.786;2024-03-25T03:02:56;13.87;;;4.57;;
21038;SDS011;10678;51.002;4.786;2024-03-25T03:05:21;12.80;;;4.40;;
21038;SDS011;10678;51.002;4.786;2024-03-25T03:07:47;8.57;;;4.00;;
21038;SDS011;10678;51.002;4.786;2024-03-25T03:10:12;7.67;;;4.07;;
21038;SDS011;10678;51.002;4.786;2024-03-25T03:12:38;13.40;;;4.90;;
21038;SDS011;10678;51.002;4.786;2024-03-25T03:15:04;15.47;;;5.03;;
21038;SDS011;10678;51.002;4.786;2024-03-25T03:17:30;12.47;;;5.10;;
21038;SDS011;10678;51.002;4.786;2024-03-25T03:19:55;16.13;;;5.77;;
21038;SDS011;10678;51.002;4.786;2024-03-25T03:22:21;12.47;;;5.27;;
21038;SDS011;10678;51.002;4.786;2024-03-25T03:24:47;14.53;;;4.87;;
21038;SDS011;10678;51.002;4.786;2024-03-25T03:27:12;14.33;;;5.00;;
21038;SDS011;10678;51.002;4.786;2024-03-25T03:29:38;13.53;;;5.53;;
21038;SDS011;10678;51.002;4.786;2024-03-25T03:32:04;10.30;;;4.93;;
21038;SDS011;10678;51.002;4.786;2024-03-25T03:34:29;12.30;;;4.93;;
21038;SDS011;10678;51.002;4.786;2024-03-25T03:36:55;8.80;;;4.73;;
21038;SDS011;10678;51.002;4.786;2024-03-25T03:39:21;15.50;;;5.70;;
21038;SDS011;10678;51.002;4.786;2024-03-25T03:41:46;14.20;;;5.73;;
21038;SDS011;10678;51.002;4.786;2024-03-25T03:44:12;18.47;;;5.53;;
21038;SDS011;10678;51.002;4.786;2024-03-25T03:46:40;13.03;;;5.40;;
21038;SDS011;10678;51.002;4.786;2024-03-25T03:49:05;15.13;;;5.23;;
21038;SDS011;10678;51.002;4.786;2024-03-25T03:51:31;13.83;;;5.97;;
21038;SDS011;10678;51.002;4.786;2024-03-25T03:53:56;13.27;;;5.73;;
21038;SDS011;10678;51.002;4.786;2024-03-25T03:56:22;17.73;;;6.40;;
21038;SDS011;10678;51.002;4.786;2024-03-25T03:58:48;15.23;;;6.30;;
21038;SDS011;10678;51.002;4.786;2024-03-25T04:01:14;14.30;;;6.70;;
21038;SDS011;10678;51.002;4.786;2024-03-25T04:03:41;15.40;;;5.90;;
21038;SDS011;10678;51.002;4.786;2024-03-25T04:06:10;16.50;;;6.60;;
21038;SDS011;10678;51.002;4.786;2024-03-25T04:08:37;19.57;;;6.20;;
21038;SDS011;10678;51.002;4.786;2024-03-25T04:11:06;14.83;;;6.53;;
21038;SDS011;10678;51.002;4.786;2024-03-25T04:13:32;17.23;;;6.30;;
21038;SDS011;10678;51.002;4.786;2024-03-25T04:16:05;22.27;;;6.80;;
21038;SDS011;10678;51.002;4.786;2024-03-25T04:18:31;20.50;;;7.80;;
21038;SDS011;10678;51.002;4.786;2024-03-25T04:20:58;21.43;;;7.67;;
21038;SDS011;10678;51.002;4.786;2024-03-25T04:23:24;18.97;;;7.70;;
21038;SDS011;10678;51.002;4.786;2024-03-25T04:25:50;21.83;;;8.07;;
21038;SDS011;10678;51.002;4.786;2024-03-25T04:28:16;20.87;;;7.87;;
21038;SDS011;10678;51.002;4.786;2024-03-25T04:30:42;21.30;;;8.70;;
21038;SDS011;10678;51.002;4.786;2024-03-25T04:33:07;28.37;;;9.50;;
21038;SDS011;10678;51.002;4.786;2024-03-25T04:35:33;22.53;;;8.97;;
21038;SDS011;10678;51.002;4.786;2024-03-25T04:37:59;29.23;;;9.20;;
21038;SDS011;10678;51.002;4.786;2024-03-25T04:40:25;31.10;;;10.00;;
21038;SDS011;10678;51.002;4.786;2024-03-25T04:42:50;27.00;;;9.60;;
21038;SDS011;10678;51.002;4.786;2024-03-25T04:45:16;31.00;;;10.03;;
21038;SDS011;10678;51.002;4.786;2024-03-25T04:47:42;32.10;;;10.50;;
21038;SDS011;10678;51.002;4.786;2024-03-25T04:50:08;41.97;;;11.90;;
21038;SDS011;10678;51.002;4.786;2024-03-25T04:52:34;29.27;;;11.17;;
21038;SDS011;10678;51.002;4.786;2024-03-25T04:54:59;34.30;;;11.37;;
21038;SDS011;10678;51.002;4.786;2024-03-25T04:57:25;31.83;;;11.03;;
21038;SDS011;10678;51.002;4.786;2024-03-25T04:59:51;31.57;;;9.93;;
21038;SDS011;10678;51.002;4.786;2024-03-25T05:02:16;29.63;;;10.17;;
21038;SDS011;10678;51.002;4.786;2024-03-25T05:04:42;38.47;;;11.57;;
21038;SDS011;10678;51.002;4.786;2024-03-25T05:07:08;26.97;;;11.50;;
21038;SDS011;10678;51.002;4.786;2024-03-25T05:09:33;31.00;;;10.37;;
21038;SDS011;10678;51.002;4.786;2024-03-25T05:11:59;30.17;;;10.17;;
21038;SDS011;10678;51.002;4.786;2024-03-25T05:14:25;38.23;;;12.37;;
21038;SDS011;10678;51.002;4.786;2024-03-25T05:16:51;26.63;;;11.40;;
21038;SDS011;10678;51.002;4.786;2024-03-25T05:19:17;34.87;;;12.43;;
21038;SDS011;10678;51.002;4.786;2024-03-25T05:21:43;34.60;;;11.83;;
21038;SDS011;10678;51.002;4.786;2024-03-25T05:24:09;35.27;;;11.80;;
21038;SDS011;10678;51.002;4.786;2024-03-25T05:26:35;39.13;;;12.20;;
21038;SDS011;10678;51.002;4.786;2024-03-25T05:29:00;33.23;;;11.77;;
21038;SDS011;10678;51.002;4.786;2024-03-25T05:31:27;29.30;;;11.70;;
21038;SDS011;10678;51.002;4.786;2024-03-25T05:33:53;35.67;;;12.00;;
21038;SDS011;10678;51.002;4.786;2024-03-25T05:36:19;34.93;;;11.50;;
21038;SDS011;10678;51.002;4.786;2024-03-25T05:38:44;24.27;;;10.77;;
21038;SDS011;10678;51.002;4.786;2024-03-25T05:41:10;29.57;;;10.43;;
21038;SDS011;10678;51.002;4.786;2024-03-25T05:43:36;29.83;;;11.20;;
21038;SDS011;10678;51.002;4.786;2024-03-25T05:46:02;25.07;;;10.63;;
21038;SDS011;10678;51.002;4.786;2024-03-25T05:48:28;28.07;;;11.43;;
21038;SDS011;10678;51.002;4.786;2024-03-25T05:51:05;22.27;;;9.30;;
21038;SDS011;10678;51.002;4.786;2024-03-25T05:53:32;22.57;;;9.60;;
21038;SDS011;10678;51.002;4.786;2024-03-25T05:55:58;27.33;;;10.47;;
21038;SDS011;10678;51.002;4.786;2024-03-25T05:58:24;23.77;;;10.20;;
21038;SDS011;10678;51.002;4.786;2024-03-25T06:00:50;22.33;;;9.60;;
21038;SDS011;10678;51.002;4.786;2024-03-25T06:03:20;29.23;;;10.37;;
21038;SDS011;10678;51.002;4.786;2024-03-25T06:05:46;21.50;;;10.40;;
21038;SDS011;10678;51.002;4.786;2024-03-25T06:08:12;27.50;;;10.90;;
21038;SDS011;10678;51.002;4.786;2024-03-25T06:10:46;30.33;;;10.77;;
21038;SDS011;10678;51.002;4.786;2024-03-25T06:13:12;38.67;;;11.73;;
21038;SDS011;10678;51.002;4.786;2024-03-25T06:15:37;28.97;;;12.03;;
21038;SDS011;10678;51.002;4.786;2024-03-25T06:18:03;29.37;;;12.03;;
21038;SDS011;10678;51.002;4.786;2024-03-25T06:20:29;34.13;;;12.37;;
21038;SDS011;10678;51.002;4.786;2024-03-25T06:22:54;32.50;;;13.63;;
21038;SDS011;10678;51.002;4.786;2024-03-25T06:25:20;31.63;;;12.80;;
21038;SDS011;10678;51.002;4.786;2024-03-25T06:27:46;33.50;;;14.67;;
21038;SDS011;10678;51.002;4.786;2024-03-25T06:30:12;29.43;;;12.97;;
21038;SDS011;10678;51.002;4.786;2024-03-25T06:32:56;26.27;;;11.13;;
21038;SDS011;10678;51.002;4.786;2024-03-25T06:35:43;23.13;;;10.23;;
21038;SDS011;10678;51.002;4.786;2024-03-25T06:38:10;23.23;;;11.07;;
21038;SDS011;10678;51.002;4.786;2024-03-25T06:40:36;26.30;;;12.20;;
21038;SDS011;10678;51.002;4.786;2024-03-25T06:43:02;30.67;;;12.30;;
21038;SDS011;10678;51.002;4.786;2024-03-25T06:45:28;29.83;;;12.53;;
21038;SDS011;10678;51.002;4.786;2024-03-25T06:47:54;31.20;;;13.07;;
21038;SDS011;10678;51.002;4.786;2024-03-25T06:50:20;34.17;;;15.30;;
21038;SDS011;10678;51.002;4.786;2024-03-25T06:52:45;36.30;;;13.70;;
21038;SDS011;10678;51.002;4.786;2024-03-25T06:55:11;34.95;;;14.07;;
21038;SDS011;10678;51.002;4.786;2024-03-25T06:57:37;35.45;;;14.52;;
21038;SDS011;10678;51.002;4.786;2024-03-25T07:00:02;34.53;;;13.52;;
21038;SDS011;10678;51.002;4.786;2024-03-25T07:02:32;35.10;;;13.25;;
21038;SDS011;10678;51.002;4.786;2024-03-25T07:04:57;33.03;;;13.43;;
21038;SDS011;10678;51.002;4.786;2024-03-25T07:07:23;25.92;;;11.23;;
21038;SDS011;10678;51.002;4.786;2024-03-25T07:09:49;29.58;;;12.05;;
21038;SDS011;10678;51.002;4.786;2024-03-25T07:12:14;28.52;;;10.55;;
21038;SDS011;10678;51.002;4.786;2024-03-25T07:14:40;34.97;;;10.98;;
21038;SDS011;10678;51.002;4.786;2024-03-25T07:17:06;28.70;;;10.70;;
21038;SDS011;10678;51.002;4.786;2024-03-25T07:19:31;30.92;;;10.73;;
21038;SDS011;10678;51.002;4.786;2024-03-25T07:21:57;30.02;;;9.93;;
21038;SDS011;10678;51.002;4.786;2024-03-25T07:24:22;27.20;;;9.50;;
21038;SDS011;10678;51.002;4.786;2024-03-25T07:26:48;27.15;;;10.82;;
21038;SDS011;10678;51.002;4.786;2024-03-25T07:29:14;23.52;;;9.32;;
21038;SDS011;10678;51.002;4.786;2024-03-25T07:31:39;24.08;;;8.88;;
21038;SDS011;10678;51.002;4.786;2024-03-25T07:34:05;19.95;;;8.85;;
21038;SDS011;10678;51.002;4.786;2024-03-25T07:36:30;27.65;;;9.55;;
21038;SDS011;10678;51.002;4.786;2024-03-25T07:39:00;20.40;;;8.88;;
21038;SDS011;10678;51.002;4.786;2024-03-25T07:41:25;32.05;;;8.88;;
21038;SDS011;10678;51.002;4.786;2024-03-25T07:43:51;21.55;;;7.32;;
21038;SDS011;10678;51.002;4.786;2024-03-25T07:46:16;24.90;;;8.05;;
21038;SDS011;10678;51.002;4.786;2024-03-25T07:48:42;24.90;;;7.88;;
21038;SDS011;10678;51.002;4.786;2024-03-25T07:51:08;22.63;;;8.80;;
21038;SDS011;10678;51.002;4.786;2024-03-25T07:53:33;25.98;;;8.15;;
21038;SDS011;10678;51.002;4.786;2024-03-25T07:55:59;17.30;;;6.95;;
21038;SDS011;10678;51.002;4.786;2024-03-25T07:58:24;16.92;;;6.95;;
21038;SDS011;10678;51.002;4.786;2024-03-25T08:00:50;22.80;;;6.85;;
21038;SDS011;10678;51.002;4.786;2024-03-25T08:03:16;19.45;;;7.35;;
21038;SDS011;10678;51.002;4.786;2024-03-25T08:05:41;16.58;;;6.32;;
21038;SDS011;10678;51.002;4.786;2024-03-25T08:08:07;20.83;;;6.68;;
21038;SDS011;10678;51.002;4.786;2024-03-25T08:10:32;17.33;;;6.75;;
21038;SDS011;10678;51.002;4.786;2024-03-25T08:12:58;18.95;;;7.03;;
21038;SDS011;10678;51.002;4.786;2024-03-25T08:15:24;18.77;;;6.18;;
21038;SDS011;10678;51.002;4.786;2024-03-25T08:17:51;17.20;;;6.38;;
21038;SDS011;10678;51.002;4.786;2024-03-25T08:20:16;17.35;;;5.90;;
21038;SDS011;10678;51.002;4.786;2024-03-25T08:22:42;18.00;;;7.20;;
21038;SDS011;10678;51.002;4.786;2024-03-25T08:25:09;22.80;;;6.43;;
21038;SDS011;10678;51.002;4.786;2024-03-25T08:27:34;17.13;;;5.65;;
21038;SDS011;10678;51.002;4.786;2024-03-25T08:30:00;18.38;;;6.05;;
21038;SDS011;10678;51.002;4.786;2024-03-25T08:32:25;14.63;;;5.95;;
21038;SDS011;10678;51.002;4.786;2024-03-25T08:34:51;16.13;;;5.80;;
21038;SDS011;10678;51.002;4.786;2024-03-25T08:37:17;17.98;;;5.50;;
21038;SDS011;10678;51.002;4.786;2024-03-25T08:39:42;16.92;;;5.85;;
21038;SDS011;10678;51.002;4.786;2024-03-25T08:42:08;17.60;;;7.40;;
21038;SDS011;10678;51.002;4.786;2024-03-25T08:44:33;13.20;;;5.20;;
21038;SDS011;10678;51.002;4.786;2024-03-25T08:46:59;13.52;;;5.97;;
21038;SDS011;10678;51.002;4.786;2024-03-25T08:49:25;17.40;;;5.25;;
21038;SDS011;10678;51.002;4.786;2024-03-25T08:51:51;13.35;;;5.30;;
21038;SDS011;10678;51.002;4.786;2024-03-25T08:54:17;14.55;;;4.88;;
21038;SDS011;10678;51.002;4.786;2024-03-25T08:56:42;15.10;;;5.28;;
21038;SDS011;10678;51.002;4.786;2024-03-25T08:59:08;12.00;;;4.72;;
21038;SDS011;10678;51.002;4.786;2024-03-25T09:01:34;13.05;;;5.22;;
21038;SDS011;10678;51.002;4.786;2024-03-25T09:04:00;13.45;;;4.72;;
21038;SDS011;10678;51.002;4.786;2024-03-25T09:06:26;13.38;;;4.63;;
21038;SDS011;10678;51.002;4.786;2024-03-25T09:08:52;14.27;;;4.68;;
21038;SDS011;10678;51.002;4.786;2024-03-25T09:11:37;13.75;;;4.35;;
21038;SDS011;10678;51.002;4.786;2024-03-25T09:14:02;15.98;;;4.10;;
21038;SDS011;10678;51.002;4.786;2024-03-25T09:16:29;11.80;;;3.80;;
21038;SDS011;10678;51.002;4.786;2024-03-25T09:18:55;12.38;;;4.47;;
21038;SDS011;10678;51.002;4.786;2024-03-25T09:21:21;11.02;;;4.32;;
21038;SDS011;10678;51.002;4.786;2024-03-25T09:23:49;8.90;;;3.85;;
21038;SDS011;10678;51.002;4.786;2024-03-25T09:26:15;13.23;;;4.20;;
21038;SDS011;10678;51.002;4.786;2024-03-25T09:28:40;17.15;;;5.30;;
21038;SDS011;10678;51.002;4.786;2024-03-25T09:31:06;13.70;;;4.35;;
21038;SDS011;10678;51.002;4.786;2024-03-25T09:33:32;11.50;;;4.22;;
21038;SDS011;10678;51.002;4.786;2024-03-25T09:35:58;13.95;;;4.05;;
21038;SDS011;10678;51.002;4.786;2024-03-25T09:38:23;10.60;;;4.18;;
21038;SDS011;10678;51.002;4.786;2024-03-25T09:40:50;12.00;;;4.72;;
21038;SDS011;10678;51.002;4.786;2024-03-25T09:43:31;13.73;;;4.22;;
21038;SDS011;10678;51.002;4.786;2024-03-25T09:45:59;11.55;;;3.83;;
21038;SDS011;10678;51.002;4.786;2024-03-25T09:48:25;12.80;;;4.70;;
21038;SDS011;10678;51.002;4.786;2024-03-25T09:50:51;11.52;;;4.10;;
21038;SDS011;10678;51.002;4.786;2024-03-25T09:53:18;10.73;;;3.45;;
21038;SDS011;10678;51.002;4.786;2024-03-25T09:55:46;8.50;;;2.90;;
21038;SDS011;10678;51.002;4.786;2024-03-25T09:58:12;10.02;;;3.35;;
21038;SDS011;10678;51.002;4.786;2024-03-25T10:00:39;10.00;;;3.30;;
21038;SDS011;10678;51.002;4.786;2024-03-25T10:03:05;10.70;;;3.50;;
21038;SDS011;10678;51.002;4.786;2024-03-25T10:05:31;11.68;;;3.50;;
21038;SDS011;10678;51.002;4.786;2024-03-25T10:07:57;7.93;;;2.70;;
21038;SDS011;10678;51.002;4.786;2024-03-25T10:10:23;10.50;;;3.17;;
21038;SDS011;10678;51.002;4.786;2024-03-25T10:12:49;11.70;;;3.17;;
21038;SDS011;10678;51.002;4.786;2024-03-25T10:15:17;10.13;;;2.90;;
21038;SDS011;10678;51.002;4.786;2024-03-25T10:17:43;9.52;;;3.50;;
21038;SDS011;10678;51.002;4.786;2024-03-25T10:20:15;12.77;;;3.22;;
21038;SDS011;10678;51.002;4.786;2024-03-25T10:22:41;9.65;;;2.50;;
21038;SDS011;10678;51.002;4.786;2024-03-25T10:25:07;8.50;;;2.85;;
21038;SDS011;10678;51.002;4.786;2024-03-25T10:28:00;7.75;;;2.28;;
21038;SDS011;10678;51.002;4.786;2024-03-25T10:30:26;7.47;;;2.05;;
21038;SDS011;10678;51.002;4.786;2024-03-25T10:33:05;6.95;;;2.45;;
21038;SDS011;10678;51.002;4.786;2024-03-25T10:35:32;8.00;;;2.38;;
21038;SDS011;10678;51.002;4.786;2024-03-25T10:37:59;7.82;;;2.50;;
21038;SDS011;10678;51.002;4.786;2024-03-25T10:40:27;10.05;;;2.58;;
21038;SDS011;10678;51.002;4.786;2024-03-25T10:43:00;7.00;;;2.40;;
21038;SDS011;10678;51.002;4.786;2024-03-25T10:45:26;8.30;;;2.42;;
21038;SDS011;10678;51.002;4.786;2024-03-25T10:47:55;8.90;;;3.15;;
21038;SDS011;10678;51.002;4.786;2024-03-25T10:50:24;6.63;;;2.20;;
21038;SDS011;10678;51.002;4.786;2024-03-25T10:52:53;7.85;;;2.25;;
21038;SDS011;10678;51.002;4.786;2024-03-25T10:55:20;5.32;;;1.98;;
21038;SDS011;10678;51.002;4.786;2024-03-25T10:57:47;7.72;;;2.42;;
21038;SDS011;10678;51.002;4.786;2024-03-25T11:00:14;12.35;;;2.58;;
21038;SDS011;10678;51.002;4.786;2024-03-25T11:02:45;7.65;;;2.70;;
21038;SDS011;10678;51.002;4.786;2024-03-25T11:05:11;11.50;;;2.42;;
21038;SDS011;10678;51.002;4.786;2024-03-25T11:07:37;7.88;;;3.00;;
21038;SDS011;10678;51.002;4.786;2024-03-25T11:10:07;8.07;;;3.00;;
21038;SDS011;10678;51.002;4.786;2024-03-25T11:12:37;10.02;;;2.30;;
21038;SDS011;10678;51.002;4.786;2024-03-25T11:15:04;9.30;;;2.42;;
21038;SDS011;10678;51.002;4.786;2024-03-25T11:17:32;8.45;;;2.00;;
21038;SDS011;10678;51.002;4.786;2024-03-25T11:20:10;6.75;;;2.25;;
21038;SDS011;10678;51.002;4.786;2024-03-25T11:22:50;7.78;;;2.67;;
21038;SDS011;10678;51.002;4.786;2024-03-25T11:25:17;8.63;;;2.25;;
21038;SDS011;10678;51.002;4.786;2024-03-25T11:27:43;6.72;;;2.72;;
21038;SDS011;10678;51.002;4.786;2024-03-25T11:30:13;8.07;;;2.33;;
21038;SDS011;10678;51.002;4.786;2024-03-25T11:32:43;9.18;;;4.38;;
21038;SDS011;10678;51.002;4.786;2024-03-25T11:35:19;6.32;;;2.03;;
21038;SDS011;10678;51.002;4.786;2024-03-25T11:37:45;9.10;;;2.58;;
21038;SDS011;10678;51.002;4.786;2024-03-25T11:40:11;8.40;;;2.58;;
21038;SDS011;10678;51.002;4.786;2024-03-25T11:42:39;11.65;;;2.72;;
21038;SDS011;10678;51.002;4.786;2024-03-25T11:45:06;11.93;;;2.40;;
21038;SDS011;10678;51.002;4.786;2024-03-25T11:47:39;10.52;;;2.22;;
21038;SDS011;10678;51.002;4.786;2024-03-25T11:50:07;6.38;;;1.75;;
21038;SDS011;10678;51.002;4.786;2024-03-25T11:52:34;11.85;;;3.25;;
21038;SDS011;10678;51.002;4.786;2024-03-25T11:55:00;9.48;;;2.08;;
21038;SDS011;10678;51.002;4.786;2024-03-25T11:57:26;6.25;;;2.30;;
21038;SDS011;10678;51.002;4.786;2024-03-25T11:59:53;6.95;;;1.38;;
21038;SDS011;10678;51.002;4.786;2024-03-25T12:02:18;9.05;;;2.42;;
21038;SDS011;10678;51.002;4.786;2024-03-25T12:04:44;8.30;;;1.98;;
21038;SDS011;10678;51.002;4.786;2024-03-25T12:07:16;7.28;;;1.75;;
21038;SDS011;10678;51.002;4.786;2024-03-25T12:09:42;7.20;;;2.28;;
21038;SDS011;10678;51.002;4.786;2024-03-25T12:12:27;5.28;;;1.48;;
21038;SDS011;10678;51.002;4.786;2024-03-25T12:14:55;6.03;;;1.60;;
21038;SDS011;10678;51.002;4.786;2024-03-25T12:17:22;7.50;;;1.52;;
21038;SDS011;10678;51.002;4.786;2024-03-25T12:20:06;7.20;;;1.70;;
21038;SDS011;10678;51.002;4.786;2024-03-25T12:22:34;5.80;;;1.83;;
21038;SDS011;10678;51.002;4.786;2024-03-25T12:25:01;5.43;;;1.60;;
21038;SDS011;10678;51.002;4.786;2024-03-25T12:27:29;6.40;;;1.73;;
21038;SDS011;10678;51.002;4.786;2024-03-25T12:30:01;7.10;;;1.77;;
21038;SDS011;10678;51.002;4.786;2024-03-25T12:32:39;8.10;;;1.90;;
21038;SDS011;10678;51.002;4.786;2024-03-25T12:35:10;9.80;;;2.00;;
21038;SDS011;10678;51.002;4.786;2024-03-25T12:37:37;7.13;;;1.75;;
21038;SDS011;10678;51.002;4.786;2024-03-25T12:40:05;5.68;;;1.67;;
21038;SDS011;10678;51.002;4.786;2024-03-25T12:42:33;5.90;;;1.60;;
21038;SDS011;10678;51.002;4.786;2024-03-25T12:44:58;6.95;;;1.40;;
21038;SDS011;10678;51.002;4.786;2024-03-25T12:47:24;8.07;;;1.27;;
21038;SDS011;10678;51.002;4.786;2024-03-25T12:49:50;6.70;;;1.80;;
21038;SDS011;10678;51.002;4.786;2024-03-25T12:52:16;6.85;;;1.50;;
21038;SDS011;10678;51.002;4.786;2024-03-25T12:54:41;5.82;;;1.70;;
21038;SDS011;10678;51.002;4.786;2024-03-25T12:57:08;6.45;;;1.63;;
21038;SDS011;10678;51.002;4.786;2024-03-25T12:59:34;6.28;;;1.88;;
21038;SDS011;10678;51.002;4.786;2024-03-25T13:02:00;6.38;;;1.90;;
21038;SDS011;10678;51.002;4.786;2024-03-25T13:04:26;7.03;;;1.40;;
21038;SDS011;10678;51.002;4.786;2024-03-25T13:06:52;5.72;;;2.00;;
21038;SDS011;10678;51.002;4.786;2024-03-25T13:09:17;8.13;;;1.63;;
21038;SDS011;10678;51.002;4.786;2024-03-25T13:11:43;6.30;;;1.27;;
21038;SDS011;10678;51.002;4.786;2024-03-25T13:14:11;7.95;;;1.40;;
21038;SDS011;10678;51.002;4.786;2024-03-25T13:16:37;6.03;;;1.60;;
21038;SDS011;10678;51.002;4.786;2024-03-25T13:19:03;4.95;;;1.30;;
21038;SDS011;10678;51.002;4.786;2024-03-25T13:21:29;3.00;;;1.08;;
21038;SDS011;10678;51.002;4.786;2024-03-25T13:23:54;8.95;;;1.50;;
21038;SDS011;10678;51.002;4.786;2024-03-25T13:26:20;5.40;;;1.58;;
21038;SDS011;10678;51.002;4.786;2024-03-25T13:28:46;6.28;;;1.60;;
21038;SDS011;10678;51.002;4.786;2024-03-25T13:31:11;5.28;;;1.45;;
21038;SDS011;10678;51.002;4.786;2024-03-25T13:33:37;6.55;;;1.60;;
21038;SDS011;10678;51.002;4.786;2024-03-25T13:36:06;8.90;;;2.20;;
21038;SDS011;10678;51.002;4.786;2024-03-25T13:38:32;5.57;;;1.65;;
21038;SDS011;10678;51.002;4.786;2024-03-25T13:41:01;5.43;;;1.55;;
21038;SDS011;10678;51.002;4.786;2024-03-25T13:43:27;7.07;;;1.80;;
21038;SDS011;10678;51.002;4.786;2024-03-25T13:45:53;5.22;;;1.98;;
21038;SDS011;10678;51.002;4.786;2024-03-25T13:48:19;7.38;;;1.52;;
21038;SDS011;10678;51.002;4.786;2024-03-25T13:50:45;6.30;;;1.55;;
21038;SDS011;10678;51.002;4.786;2024-03-25T13:53:10;4.68;;;1.30;;
21038;SDS011;10678;51.002;4.786;2024-03-25T13:55:36;6.57;;;1.42;;
21038;SDS011;10678;51.002;4.786;2024-03-25T13:58:02;5.10;;;1.45;;
21038;SDS011;10678;51.002;4.786;2024-03-25T14:00:28;4.63;;;1.52;;
21038;SDS011;10678;51.002;4.786;2024-03-25T14:02:54;5.13;;;1.20;;
21038;SDS011;10678;51.002;4.786;2024-03-25T14:05:20;7.90;;;1.90;;
21038;SDS011;10678;51.002;4.786;2024-03-25T14:07:48;6.95;;;1.83;;
21038;SDS011;10678;51.002;4.786;2024-03-25T14:10:14;5.22;;;1.70;;
21038;SDS011;10678;51.002;4.786;2024-03-25T14:12:40;6.53;;;1.80;;
21038;SDS011;10678;51.002;4.786;2024-03-25T14:15:05;7.95;;;1.75;;
21038;SDS011;10678;51.002;4.786;2024-03-25T14:17:31;7.25;;;1.70;;
21038;SDS011;10678;51.002;4.786;2024-03-25T14:19:57;6.00;;;1.40;;
21038;SDS011;10678;51.002;4.786;2024-03-25T14:22:23;5.40;;;2.00;;
21038;SDS011;10678;51.002;4.786;2024-03-25T14:24:48;6.93;;;1.55;;
21038;SDS011;10678;51.002;4.786;2024-03-25T14:27:14;9.43;;;1.70;;
21038;SDS011;10678;51.002;4.786;2024-03-25T14:29:40;4.75;;;1.52;;
21038;SDS011;10678;51.002;4.786;2024-03-25T14:32:07;4.85;;;1.60;;